Time;durP1;ratioP1;P1;durP2;ratioP2;P2;SDS_P1;SDS_P2;PMS_P1;PMS_P2;Temp;Humidity;BMP_temperature;BMP_pressure;BME280_temperature;BME280_humidity;BME280_pressure;Samples;Min_cycle;Max_cycle;Signal;HPM_P1;HPM_P2
2023/04/19 00:02:20;;;;;;;;;;;;;;;7.84;79.36;99846.31;5032568;28;19920;-78
2023/04/19 00:04:46;;;;;;;;;;;;;;;7.89;79.85;99835.91;5034320;28;20061;-79
2023/04/19 00:07:12;;;;;;;;;;;;;;;8.05;80.27;99845.28;5067315;28;19921;-78
2023/04/19 00:09:38;;;;;;;;;;;;;;;8.07;79.44;99846.72;5047154;28;19957;-79
2023/04/19 00:12:03;;;;;;;;;;;;;;;8.34;80.84;99836.03;5052582;28;20359;-78
2023/04/19 00:14:28;;;;;;;;;;;;;;;8.10;80.08;99838.31;5046663;28;20395;-79
2023/04/19 00:16:53;;;;;;;;;;;;;;;7.90;80.33;99834.06;5049157;28;20002;-78
2023/04/19 00:19:21;;;;;;;;;;;;;;;7.79;80.32;99830.19;5049467;28;19917;-79
2023/04/19 00:21:46;;;;;;;;;;;;;;;7.71;78.26;99833.03;5051564;28;19957;-79
2023/04/19 00:24:11;;;;;;;;;;;;;;;7.76;79.09;99825.28;5048275;28;19917;-78
2023/04/19 00:26:37;;;;;;;;;;;;;;;7.77;79.96;99826.09;5063040;28;19931;-79
2023/04/19 00:29:02;;;;;;;;;;;;;;;7.75;79.82;99833.47;5052239;28;19933;-79
2023/04/19 00:31:27;;;;;;;;;;;;;;;7.79;79.21;99832.03;5051894;28;20461;-79
2023/04/19 00:33:52;;;;;;;;;;;;;;;7.72;77.44;99820.59;5053412;28;19920;-79
2023/04/19 00:36:18;;;;;;;;;;;;;;;7.81;78.35;99824.66;5054230;28;19921;-79
2023/04/19 00:38:43;;;;;;;;;;;;;;;7.90;77.95;99828.75;5058390;28;19954;-79
2023/04/19 00:41:08;;;;;;;;;;;;;;;7.91;78.09;99833.03;5052459;28;19939;-79
2023/04/19 00:43:33;;;;;;;;;;;;;;;7.77;76.22;99828.75;5057183;28;20418;-79
2023/04/19 00:45:59;;;;;;;;;;;;;;;7.90;74.87;99832.22;5046393;28;19917;-79
2023/04/19 00:48:24;;;;;;;;;;;;;;;7.84;74.33;99822.41;5052509;28;20376;-78
2023/04/19 00:50:50;;;;;;;;;;;;;;;7.51;73.32;99821.63;5049131;28;20019;-78
2023/04/19 00:53:15;;;;;;;;;;;;;;;7.78;75.45;99820.56;5045776;28;20376;-79
2023/04/19 00:55:41;;;;;;;;;;;;;;;7.69;74.17;99818.38;5046171;28;19924;-79
2023/04/19 00:58:07;;;;;;;;;;;;;;;7.62;74.75;99817.53;5061146;28;20296;-79
2023/04/19 01:00:32;;;;;;;;;;;;;;;7.49;76.30;99816.50;5050448;28;19969;-79
2023/04/19 01:02:57;;;;;;;;;;;;;;;7.65;76.10;99820.59;5048958;28;19929;-79
2023/04/19 01:05:23;;;;;;;;;;;;;;;7.94;77.33;99828.13;5049689;28;19920;-79
2023/04/19 01:07:48;;;;;;;;;;;;;;;8.11;78.10;99824.00;5047157;28;19955;-78
2023/04/19 01:10:13;;;;;;;;;;;;;;;8.12;77.26;99819.50;5049165;28;20349;-79
2023/04/19 01:12:39;;;;;;;;;;;;;;;7.97;77.00;99824.25;5046607;28;19925;-79
2023/04/19 01:15:04;;;;;;;;;;;;;;;7.52;77.93;99816.13;5046725;28;19935;-78
2023/04/19 01:17:31;;;;;;;;;;;;;;;7.68;78.42;99817.53;5040418;28;19937;-79
2023/04/19 01:20:00;;;;;;;;;;;;;;;7.44;78.42;99818.16;5050426;28;20486;-78
2023/04/19 01:22:27;;;;;;;;;;;;;;;7.41;79.89;99815.91;5048524;28;19924;-78
2023/04/19 01:24:52;;;;;;;;;;;;;;;7.24;79.41;99810.19;5048636;28;19917;-79
2023/04/19 01:27:18;;;;;;;;;;;;;;;7.24;80.00;99819.97;5044856;28;19929;-79
2023/04/19 01:29:44;;;;;;;;;;;;;;;7.19;80.16;99814.44;5052310;28;20431;-79
2023/04/19 01:32:09;;;;;;;;;;;;;;;7.23;80.16;99816.50;5051063;28;19951;-79
2023/04/19 01:34:34;;;;;;;;;;;;;;;7.50;80.62;99809.38;5038759;28;20058;-79
2023/04/19 01:36:59;;;;;;;;;;;;;;;7.28;79.36;99823.84;5048929;28;19975;-79
2023/04/19 01:39:26;;;;;;;;;;;;;;;7.44;78.47;99813.66;5048566;28;20369;-79
2023/04/19 01:41:51;;;;;;;;;;;;;;;7.52;79.55;99816.13;5056936;28;19924;-79
2023/04/19 01:44:16;;;;;;;;;;;;;;;7.17;79.65;99814.66;5054415;28;19929;-79
2023/04/19 01:46:41;;;;;;;;;;;;;;;7.28;79.65;99805.28;5053877;28;19916;-79
2023/04/19 01:49:07;;;;;;;;;;;;;;;7.12;79.79;99805.69;5047722;28;19975;-80
2023/04/19 01:51:32;;;;;;;;;;;;;;;7.19;79.30;99809.13;5048976;28;19920;-79
2023/04/19 01:53:57;;;;;;;;;;;;;;;7.19;79.58;99799.34;5044756;28;19925;-79
2023/04/19 01:56:23;;;;;;;;;;;;;;;7.30;79.04;99803.22;5042926;28;19936;-79
2023/04/19 01:58:48;;;;;;;;;;;;;;;6.98;78.93;99804.84;5043103;28;19964;-79
2023/04/19 02:01:13;;;;;;;;;;;;;;;7.41;80.63;99792.81;5047534;28;20246;-79
2023/04/19 02:03:39;;;;;;;;;;;;;;;7.23;79.61;99794.47;5025148;28;20814;-79
2023/04/19 02:06:04;;;;;;;;;;;;;;;7.36;77.13;99794.47;5047401;28;19920;-79
2023/04/19 02:08:30;;;;;;;;;;;;;;;7.33;77.45;99789.56;5040900;28;19995;-79
2023/04/19 02:10:55;;;;;;;;;;;;;;;7.15;77.78;99790.16;5041366;28;19970;-78
2023/04/19 02:13:20;;;;;;;;;;;;;;;7.14;78.34;99785.84;5047395;28;19924;-79
2023/04/19 02:15:45;;;;;;;;;;;;;;;6.67;77.19;99786.00;5039926;28;20400;-79
2023/04/19 02:18:12;;;;;;;;;;;;;;;7.25;78.37;99779.94;5048121;28;19920;-78
2023/04/19 02:20:37;;;;;;;;;;;;;;;7.19;77.08;99794.03;5053076;28;19920;-78
2023/04/19 02:23:02;;;;;;;;;;;;;;;6.69;76.84;99786.59;5046054;28;20043;-78
2023/04/19 02:25:28;;;;;;;;;;;;;;;6.61;77.45;99779.66;5035006;28;19967;-78
2023/04/19 02:27:53;;;;;;;;;;;;;;;6.60;77.42;99790.44;5046461;28;19921;-78
2023/04/19 02:30:18;;;;;;;;;;;;;;;6.38;77.83;99781.00;5027601;28;19925;-78
2023/04/19 02:32:46;;;;;;;;;;;;;;;6.81;78.31;99785.81;5044032;28;19928;-78
2023/04/19 02:35:11;;;;;;;;;;;;;;;6.56;78.29;99789.22;5044384;28;19971;-78
2023/04/19 02:37:36;;;;;;;;;;;;;;;6.53;77.11;99787.78;5033860;28;20384;-78
2023/04/19 02:40:04;;;;;;;;;;;;;;;6.38;78.17;99794.25;5042883;28;19944;-78
2023/04/19 02:42:29;;;;;;;;;;;;;;;6.58;77.36;99787.19;5043364;28;19986;-78
2023/04/19 02:44:54;;;;;;;;;;;;;;;6.89;78.62;99792.78;5047213;28;19920;-78
2023/04/19 02:47:19;;;;;;;;;;;;;;;6.72;75.67;99788.88;5039687;28;20622;-79
2023/04/19 02:49:45;;;;;;;;;;;;;;;6.37;75.25;99788.16;5043795;28;19952;-78
2023/04/19 02:52:10;;;;;;;;;;;;;;;6.13;74.66;99788.66;5046015;28;19931;-79
2023/04/19 02:54:35;;;;;;;;;;;;;;;6.19;73.95;99787.88;5033853;28;19920;-78
2023/04/19 02:57:00;;;;;;;;;;;;;;;6.14;74.21;99794.78;5042674;28;19920;-78
2023/04/19 02:59:26;;;;;;;;;;;;;;;6.53;74.58;99779.81;5065820;28;20299;-78
2023/04/19 03:01:51;;;;;;;;;;;;;;;6.25;74.79;99781.75;5044946;28;20392;-78
2023/04/19 03:04:16;;;;;;;;;;;;;;;5.62;71.00;99787.28;5059077;28;19972;-78
2023/04/19 03:06:43;;;;;;;;;;;;;;;5.46;70.78;99783.09;5050037;28;19928;-78
2023/04/19 03:09:08;;;;;;;;;;;;;;;5.57;70.05;99779.94;5041634;28;20399;-78
2023/04/19 03:11:34;;;;;;;;;;;;;;;5.26;69.44;99790.88;5045116;28;19967;-78
2023/04/19 03:13:59;;;;;;;;;;;;;;;5.57;72.04;99785.22;5018075;28;19928;-78
2023/04/19 03:16:25;;;;;;;;;;;;;;;5.40;71.20;99785.69;5041527;28;19921;-78
2023/04/19 03:18:50;;;;;;;;;;;;;;;5.19;70.36;99783.91;5056306;28;20337;-78
2023/04/19 03:21:15;;;;;;;;;;;;;;;4.89;70.06;99788.50;5060692;28;19921;-78
2023/04/19 03:23:41;;;;;;;;;;;;;;;4.89;69.90;99780.56;5051701;28;19963;-78
2023/04/19 03:26:06;;;;;;;;;;;;;;;5.04;70.41;99785.81;5051691;28;20384;-78
2023/04/19 03:28:31;;;;;;;;;;;;;;;5.13;69.58;99774.09;5046573;28;19925;-78
2023/04/19 03:30:56;;;;;;;;;;;;;;;4.97;69.19;99774.34;5047941;28;20290;-78
2023/04/19 03:33:22;;;;;;;;;;;;;;;5.21;72.58;99776.59;5054631;28;19922;-78
2023/04/19 03:35:47;;;;;;;;;;;;;;;4.67;70.86;99778.97;5038129;28;19924;-79
2023/04/19 03:38:12;;;;;;;;;;;;;;;5.39;71.69;99779.59;5037104;28;19928;-78
2023/04/19 03:40:37;;;;;;;;;;;;;;;5.46;72.59;99769.06;5056750;28;19929;-78
2023/04/19 03:43:03;;;;;;;;;;;;;;;4.90;69.70;99781.41;5051656;28;20662;-78
2023/04/19 03:45:29;;;;;;;;;;;;;;;4.99;70.89;99774.97;5051297;28;19924;-78
2023/04/19 03:47:54;;;;;;;;;;;;;;;5.18;70.87;99783.09;5053105;28;19971;-78
2023/04/19 03:50:19;;;;;;;;;;;;;;;5.96;70.45;99777.53;5054184;28;19963;-78
2023/04/19 03:52:45;;;;;;;;;;;;;;;4.90;70.21;99782.22;5051096;28;19924;-78
2023/04/19 03:55:11;;;;;;;;;;;;;;;4.40;71.58;99788.41;5051336;28;20015;-78
2023/04/19 03:57:36;;;;;;;;;;;;;;;4.71;72.28;99784.69;5047317;28;19917;-78
2023/04/19 04:00:05;;;;;;;;;;;;;;;4.47;71.25;99785.84;5049551;28;20035;-78
2023/04/19 04:02:31;;;;;;;;;;;;;;;4.37;72.08;99780.03;5050989;28;20006;-78
2023/04/19 04:04:56;;;;;;;;;;;;;;;4.48;70.88;99779.53;5044916;28;19944;-78
2023/04/19 04:07:22;;;;;;;;;;;;;;;4.69;70.83;99782.22;5042096;28;19921;-78
2023/04/19 04:09:47;;;;;;;;;;;;;;;4.67;72.27;99778.13;5044050;28;19924;-78
2023/04/19 04:12:13;;;;;;;;;;;;;;;4.95;72.82;99771.09;5044528;28;19929;-78
2023/04/19 04:14:38;;;;;;;;;;;;;;;4.88;70.19;99783.44;5019813;28;19917;-78
2023/04/19 04:17:03;;;;;;;;;;;;;;;4.54;72.67;99781.47;5042994;28;19925;-78
2023/04/19 04:19:28;;;;;;;;;;;;;;;4.12;72.47;99789.28;5036885;28;19983;-78
2023/04/19 04:21:54;;;;;;;;;;;;;;;3.95;73.04;99799.22;5024703;28;20364;-78
2023/04/19 04:24:21;;;;;;;;;;;;;;;4.33;72.64;99800.72;5058310;28;19924;-78
2023/04/19 04:26:48;;;;;;;;;;;;;;;4.49;71.50;99797.88;5041806;28;19921;-78
2023/04/19 04:29:14;;;;;;;;;;;;;;;4.61;72.54;99794.75;5046969;28;20574;-78
2023/04/19 04:31:39;;;;;;;;;;;;;;;4.19;71.41;99809.50;5049156;28;19982;-78
2023/04/19 04:34:05;;;;;;;;;;;;;;;4.19;72.57;99806.88;5046676;28;19970;-78
2023/04/19 04:36:30;;;;;;;;;;;;;;;4.08;73.01;99807.34;5043299;28;19917;-79
2023/04/19 04:38:56;;;;;;;;;;;;;;;4.07;73.04;99807.50;5045047;28;19920;-78
2023/04/19 04:41:21;;;;;;;;;;;;;;;3.86;72.67;99805.59;5044087;28;19927;-80
2023/04/19 04:43:50;;;;;;;;;;;;;;;3.77;73.15;99809.31;5050900;28;19943;-78
2023/04/19 04:46:15;;;;;;;;;;;;;;;3.86;74.04;99810.06;5042876;28;20327;-78
2023/04/19 04:48:40;;;;;;;;;;;;;;;3.84;73.96;99818.16;5046823;28;19917;-78
2023/04/19 04:51:06;;;;;;;;;;;;;;;3.94;73.81;99817.88;5015253;28;19924;-78
2023/04/19 04:53:31;;;;;;;;;;;;;;;4.87;73.52;99816.19;5043166;28;20003;-78
2023/04/19 04:55:56;;;;;;;;;;;;;;;4.88;72.53;99816.00;5046811;28;20601;-79
2023/04/19 04:58:21;;;;;;;;;;;;;;;4.60;72.63;99819.53;5059793;28;20372;-78
2023/04/19 05:00:47;;;;;;;;;;;;;;;5.31;71.71;99811.50;5037965;28;20315;-78
2023/04/19 05:03:13;;;;;;;;;;;;;;;5.62;70.32;99808.47;5039433;28;19933;-78
2023/04/19 05:05:38;;;;;;;;;;;;;;;4.47;70.27;99818.41;5047535;28;19939;-78
2023/04/19 05:08:03;;;;;;;;;;;;;;;4.05;71.20;99812.97;5034201;28;20320;-78
2023/04/19 05:10:29;;;;;;;;;;;;;;;4.74;71.02;99823.97;5049654;28;19928;-78
2023/04/19 05:12:54;;;;;;;;;;;;;;;4.43;74.41;99832.16;5052460;28;19921;-78
2023/04/19 05:15:20;;;;;;;;;;;;;;;4.32;71.00;99822.06;5045608;28;20375;-78
2023/04/19 05:17:45;;;;;;;;;;;;;;;3.64;72.00;99828.44;5051459;28;19918;-78
2023/04/19 05:20:10;;;;;;;;;;;;;;;4.66;74.21;99826.72;5049934;28;19927;-78
2023/04/19 05:22:36;;;;;;;;;;;;;;;5.21;71.14;99821.59;5050433;28;20023;-78
2023/04/19 05:25:01;;;;;;;;;;;;;;;4.41;70.95;99826.25;5063909;28;19947;-78
2023/04/19 05:27:26;;;;;;;;;;;;;;;4.28;71.36;99818.16;5050030;28;20300;-78
2023/04/19 05:29:52;;;;;;;;;;;;;;;4.31;72.96;99818.59;5047610;28;19924;-77
2023/04/19 05:32:17;;;;;;;;;;;;;;;4.76;71.59;99806.91;5042497;28;20396;-78
2023/04/19 05:34:43;;;;;;;;;;;;;;;4.48;69.78;99811.25;5047232;28;20481;-78
2023/04/19 05:37:08;;;;;;;;;;;;;;;3.84;72.07;99806.78;5048452;28;19923;-78
2023/04/19 05:39:33;;;;;;;;;;;;;;;4.32;71.88;99809.69;5048680;28;20008;-78
2023/04/19 05:41:59;;;;;;;;;;;;;;;3.99;73.03;99805.78;5048786;28;20010;-78
2023/04/19 05:44:24;;;;;;;;;;;;;;;3.90;72.11;99809.50;5046248;28;19943;-78
2023/04/19 05:46:49;;;;;;;;;;;;;;;4.29;72.44;99802.09;5047354;28;20349;-78
2023/04/19 05:49:14;;;;;;;;;;;;;;;4.28;72.23;99802.31;5047040;28;20348;-78
2023/04/19 05:51:40;;;;;;;;;;;;;;;4.03;72.79;99796.50;5049715;28;19920;-78
2023/04/19 05:54:05;;;;;;;;;;;;;;;4.64;72.90;99797.00;5051045;28;19917;-78
2023/04/19 05:56:30;;;;;;;;;;;;;;;4.40;71.07;99806.09;5051552;28;19924;-78
2023/04/19 05:58:55;;;;;;;;;;;;;;;5.17;71.47;99793.88;5052539;28;19921;-79
2023/04/19 06:01:22;;;;;;;;;;;;;;;4.49;71.25;99803.16;5050405;28;19917;-78
2023/04/19 06:03:51;;;;;;;;;;;;;;;4.64;71.11;99792.53;5052488;28;19948;-78
2023/04/19 06:06:17;;;;;;;;;;;;;;;4.30;70.37;99803.72;5052231;28;20280;-78
2023/04/19 06:08:42;;;;;;;;;;;;;;;4.03;70.60;99807.06;5051027;28;19917;-78
2023/04/19 06:11:07;;;;;;;;;;;;;;;4.76;71.40;99796.31;5050246;28;19963;-78
2023/04/19 06:13:32;;;;;;;;;;;;;;;4.53;70.64;99800.97;5051015;28;19917;-78
2023/04/19 06:15:57;;;;;;;;;;;;;;;4.31;70.25;99813.31;5052298;28;20307;-80
2023/04/19 06:18:23;;;;;;;;;;;;;;;3.98;70.32;99801.50;5034476;28;20380;-80
2023/04/19 06:20:48;;;;;;;;;;;;;;;4.24;70.20;99808.94;5034242;28;19924;-80
2023/04/19 06:23:13;;;;;;;;;;;;;;;4.14;70.21;99811.03;5034433;28;19932;-80
2023/04/19 06:25:39;;;;;;;;;;;;;;;4.24;69.44;99812.41;5052119;28;19917;-78
2023/04/19 06:28:05;;;;;;;;;;;;;;;4.05;69.86;99812.13;5034210;28;20050;-78
2023/04/19 06:30:30;;;;;;;;;;;;;;;4.44;70.06;99802.91;5050387;28;20007;-78
2023/04/19 06:32:56;;;;;;;;;;;;;;;4.87;69.05;99805.59;5052003;28;19913;-78
2023/04/19 06:35:21;;;;;;;;;;;;;;;5.22;69.61;99804.72;5050782;28;19917;-78
2023/04/19 06:37:46;;;;;;;;;;;;;;;5.64;69.87;99809.09;5050692;28;19917;-78
2023/04/19 06:40:11;;;;;;;;;;;;;;;4.77;69.99;99813.00;5034207;28;20242;-78
2023/04/19 06:42:37;;;;;;;;;;;;;;;5.42;70.98;99805.69;5050546;28;20404;-78
2023/04/19 06:45:02;;;;;;;;;;;;;;;4.97;70.38;99816.69;5051930;28;20579;-78
2023/04/19 06:47:27;;;;;;;;;;;;;;;5.46;69.81;99806.94;5052042;28;19952;-78
2023/04/19 06:49:53;;;;;;;;;;;;;;;5.40;68.85;99814.81;5051897;28;19927;-78
2023/04/19 06:52:18;;;;;;;;;;;;;;;5.40;70.90;99807.69;5051974;28;19936;-78
2023/04/19 06:54:48;;;;;;;;;;;;;;;5.85;68.26;99801.16;5051919;28;19928;-79
2023/04/19 06:57:13;;;;;;;;;;;;;;;5.33;68.61;99809.47;5050598;28;19996;-78
2023/04/19 06:59:38;;;;;;;;;;;;;;;5.74;68.39;99797.19;5050269;28;20007;-78
2023/04/19 07:02:04;;;;;;;;;;;;;;;5.59;67.29;99801.72;5050775;28;20015;-78
2023/04/19 07:04:29;;;;;;;;;;;;;;;5.60;70.85;99797.25;5033878;28;19924;-78
2023/04/19 07:06:54;;;;;;;;;;;;;;;5.47;70.49;99797.16;5053270;28;19920;-78
2023/04/19 07:09:20;;;;;;;;;;;;;;;5.02;69.50;99798.44;5053977;28;19917;-78
2023/04/19 07:11:46;;;;;;;;;;;;;;;5.33;71.37;99794.41;5055629;28;19974;-78
2023/04/19 07:14:12;;;;;;;;;;;;;;;5.12;68.74;99796.28;5054642;28;19962;-78
2023/04/19 07:16:37;;;;;;;;;;;;;;;5.11;69.60;99798.09;5055533;28;19950;-78
2023/04/19 07:19:03;;;;;;;;;;;;;;;5.09;69.48;99792.16;5054019;28;19912;-78
2023/04/19 07:21:32;;;;;;;;;;;;;;;5.09;70.25;99794.00;5037343;28;19940;-78
2023/04/19 07:23:57;;;;;;;;;;;;;;;4.95;69.31;99801.00;5055562;28;19917;-78
2023/04/19 07:26:22;;;;;;;;;;;;;;;5.18;69.16;99795.50;5055513;28;20356;-78
2023/04/19 07:28:48;;;;;;;;;;;;;;;5.56;71.04;99788.91;5055348;28;20277;-78
2023/04/19 07:31:14;;;;;;;;;;;;;;;5.58;69.54;99796.63;5053988;28;19917;-78
2023/04/19 07:33:39;;;;;;;;;;;;;;;5.38;70.60;99783.25;5053886;28;20364;-78
2023/04/19 07:36:05;;;;;;;;;;;;;;;5.32;69.47;99790.16;5037502;28;19917;-78
2023/04/19 07:38:30;;;;;;;;;;;;;;;5.75;68.32;99780.25;5055342;28;19921;-78
2023/04/19 07:40:55;;;;;;;;;;;;;;;5.52;68.75;99779.72;5037054;28;19917;-78
2023/04/19 07:43:21;;;;;;;;;;;;;;;5.34;69.04;99771.41;5037148;28;19921;-78
2023/04/19 07:45:46;;;;;;;;;;;;;;;5.69;68.56;99772.28;5055143;28;19966;-78
2023/04/19 07:48:11;;;;;;;;;;;;;;;6.18;69.61;99774.81;5053516;28;20305;-78
2023/04/19 07:50:36;;;;;;;;;;;;;;;6.32;68.98;99768.53;5036985;28;19917;-78
2023/04/19 07:53:02;;;;;;;;;;;;;;;6.62;66.97;99770.66;5053672;28;19967;-78
2023/04/19 07:55:27;;;;;;;;;;;;;;;6.62;67.25;99767.19;5053659;28;19924;-78
2023/04/19 07:57:52;;;;;;;;;;;;;;;6.62;67.35;99760.06;5054632;28;20289;-78
2023/04/19 08:00:20;;;;;;;;;;;;;;;7.20;67.10;99765.66;5054641;28;19921;-79
2023/04/19 08:02:46;;;;;;;;;;;;;;;7.27;66.16;99769.13;5054505;28;19921;-78
2023/04/19 08:05:12;;;;;;;;;;;;;;;6.07;65.00;99772.72;5054447;28;19917;-78
2023/04/19 08:07:37;;;;;;;;;;;;;;;6.19;66.42;99760.53;5054488;28;19935;-78
2023/04/19 08:10:04;;;;;;;;;;;;;;;6.18;65.77;99767.66;5053013;28;19920;-78
2023/04/19 08:12:29;;;;;;;;;;;;;;;6.19;65.31;99764.00;5053060;28;19913;-78
2023/04/19 08:14:54;;;;;;;;;;;;;;;6.46;67.02;99754.31;5053270;28;20364;-78
2023/04/19 08:17:20;;;;;;;;;;;;;;;6.73;66.88;99753.34;5036329;28;19917;-78
2023/04/19 08:19:46;;;;;;;;;;;;;;;6.94;64.37;99752.38;5052226;28;20422;-79
2023/04/19 08:22:11;;;;;;;;;;;;;;;6.48;64.88;99752.28;5052981;28;19920;-78
2023/04/19 08:24:36;;;;;;;;;;;;;;;6.34;65.05;99754.06;5036179;28;19943;-78
2023/04/19 08:27:02;;;;;;;;;;;;;;;7.60;65.95;99748.66;5036306;28;19917;-78
2023/04/19 08:29:27;;;;;;;;;;;;;;;6.93;66.76;99740.09;5052774;28;19924;-78
2023/04/19 08:31:52;;;;;;;;;;;;;;;6.91;66.15;99735.00;5052739;28;19948;-78
2023/04/19 08:34:18;;;;;;;;;;;;;;;6.77;65.17;99744.78;5052862;28;20376;-78
2023/04/19 08:36:44;;;;;;;;;;;;;;;7.35;64.24;99743.19;5053217;28;20015;-79
2023/04/19 08:39:11;;;;;;;;;;;;;;;7.49;65.99;99736.81;5036441;28;19917;-79
2023/04/19 08:41:37;;;;;;;;;;;;;;;7.29;65.03;99741.38;5054007;28;19964;-79
2023/04/19 08:44:02;;;;;;;;;;;;;;;7.10;62.17;99734.19;5054244;28;19990;-79
2023/04/19 08:46:29;;;;;;;;;;;;;;;7.17;62.45;99731.53;5052758;28;19913;-78
2023/04/19 08:48:55;;;;;;;;;;;;;;;7.52;62.56;99730.28;5036476;28;19917;-78
2023/04/19 08:51:20;;;;;;;;;;;;;;;7.13;61.81;99725.00;5053792;28;19924;-78
2023/04/19 08:53:47;;;;;;;;;;;;;;;7.28;61.87;99726.44;5035774;28;19917;-78
2023/04/19 08:56:12;;;;;;;;;;;;;;;7.28;63.09;99720.31;5052411;28;19920;-78
2023/04/19 08:58:41;;;;;;;;;;;;;;;7.31;60.39;99715.41;5052873;28;19936;-78
2023/04/19 09:01:07;;;;;;;;;;;;;;;7.44;59.72;99714.56;5053230;28;19912;-78
2023/04/19 09:03:32;;;;;;;;;;;;;;;7.32;59.53;99716.22;5053329;28;19921;-78
2023/04/19 09:05:59;;;;;;;;;;;;;;;7.40;56.80;99706.19;5052159;28;19934;-78
2023/04/19 09:08:28;;;;;;;;;;;;;;;7.41;55.37;99710.50;5051773;28;19921;-78
2023/04/19 09:10:54;;;;;;;;;;;;;;;7.62;55.20;99700.66;5051316;28;19925;-78
2023/04/19 09:13:19;;;;;;;;;;;;;;;7.84;57.17;99700.16;5051680;28;20441;-79
2023/04/19 09:15:44;;;;;;;;;;;;;;;7.68;53.39;99702.47;5052132;28;19971;-79
2023/04/19 09:18:10;;;;;;;;;;;;;;;7.81;53.03;99691.78;5052016;28;19923;-78
2023/04/19 09:20:36;;;;;;;;;;;;;;;7.93;55.01;99688.25;5035000;28;20426;-78
2023/04/19 09:23:03;;;;;;;;;;;;;;;7.99;54.79;99695.41;5051837;28;20257;-79
2023/04/19 09:25:28;;;;;;;;;;;;;;;8.18;56.53;99693.69;5052857;28;19913;-78
2023/04/19 09:27:55;;;;;;;;;;;;;;;7.99;52.62;99694.59;5051583;28;19924;-78
2023/04/19 09:30:24;;;;;;;;;;;;;;;7.71;52.54;99694.09;5034821;28;20451;-78
2023/04/19 09:32:49;;;;;;;;;;;;;;;7.86;50.96;99689.34;5052996;28;19913;-79
2023/04/19 09:35:14;;;;;;;;;;;;;;;8.16;52.51;99671.81;5053135;28;20394;-79
2023/04/19 09:37:40;;;;;;;;;;;;;;;8.18;54.11;99675.06;5052998;28;19916;-78
2023/04/19 09:40:21;;;;;;;;;;;;;;;8.21;51.83;99670.13;5051672;28;20000;-78
2023/04/19 09:42:47;;;;;;;;;;;;;;;8.36;52.67;99675.22;5052693;28;19921;-78
2023/04/19 09:45:12;;;;;;;;;;;;;;;8.52;53.52;99677.34;5034795;28;20464;-78
2023/04/19 09:47:37;;;;;;;;;;;;;;;8.52;48.67;99661.38;5034896;28;19920;-79
2023/04/19 09:50:07;;;;;;;;;;;;;;;8.47;49.16;99666.56;5051133;28;20456;-78
2023/04/19 09:52:35;;;;;;;;;;;;;;;8.89;52.88;99665.00;5034559;28;20543;-78
2023/04/19 09:55:03;;;;;;;;;;;;;;;8.56;50.65;99662.56;5051314;28;19962;-78
2023/04/19 09:57:28;;;;;;;;;;;;;;;8.80;52.19;99663.66;5052554;28;19913;-78
2023/04/19 09:59:53;;;;;;;;;;;;;;;8.32;52.36;99649.25;5052444;28;19924;-78
2023/04/19 10:02:19;;;;;;;;;;;;;;;8.70;51.90;99666.78;5034872;28;19921;-79
2023/04/19 10:04:45;;;;;;;;;;;;;;;8.58;49.25;99659.72;5054480;28;19916;-79
2023/04/19 10:07:10;;;;;;;;;;;;;;;8.89;49.53;99644.50;5052340;28;19920;-78
2023/04/19 10:09:37;;;;;;;;;;;;;;;8.85;49.12;99656.63;5050467;28;19913;-78
2023/04/19 10:12:03;;;;;;;;;;;;;;;8.54;48.69;99653.22;5050992;28;19913;-79
2023/04/19 10:14:32;;;;;;;;;;;;;;;8.75;49.17;99645.69;5034393;28;19917;-78
2023/04/19 10:16:58;;;;;;;;;;;;;;;8.69;48.27;99653.72;5050731;28;20007;-79
2023/04/19 10:19:23;;;;;;;;;;;;;;;8.63;49.31;99651.88;5052048;28;19995;-81
2023/04/19 10:21:50;;;;;;;;;;;;;;;8.65;49.45;99640.00;5052224;28;19921;-80
2023/04/19 10:24:20;;;;;;;;;;;;;;;8.93;51.38;99634.25;5051021;28;19912;-78
2023/04/19 10:27:03;;;;;;;;;;;;;;;8.99;50.35;99630.72;5051035;28;19917;-78
2023/04/19 10:29:48;;;;;;;;;;;;;;;9.13;53.11;99631.41;5050801;28;19913;-78
2023/04/19 10:32:13;;;;;;;;;;;;;;;9.31;52.93;99632.25;5052340;28;19913;-78
2023/04/19 10:34:39;;;;;;;;;;;;;;;9.33;52.99;99635.50;5052309;28;19920;-79
2023/04/19 10:37:05;;;;;;;;;;;;;;;9.11;52.91;99634.28;5050793;28;19927;-79
2023/04/19 10:39:41;;;;;;;;;;;;;;;8.87;52.31;99625.28;5050555;28;19988;-79
2023/04/19 10:42:06;;;;;;;;;;;;;;;9.35;53.45;99629.97;5052590;28;20293;-79
2023/04/19 10:44:31;;;;;;;;;;;;;;;9.59;53.14;99623.72;5055110;28;19912;-79
2023/04/19 10:46:57;;;;;;;;;;;;;;;8.95;53.40;99619.69;5038188;28;20390;-79
2023/04/19 10:49:23;;;;;;;;;;;;;;;9.14;53.46;99625.03;5056072;28;19913;-80
2023/04/19 10:51:53;;;;;;;;;;;;;;;9.68;54.15;99623.22;5056098;28;19924;-78
2023/04/19 10:54:31;;;;;;;;;;;;;;;9.46;53.44;99626.53;5054714;28;19920;-79
2023/04/19 10:57:06;;;;;;;;;;;;;;;9.23;51.93;99619.22;5038634;28;20514;-79
2023/04/19 10:59:31;;;;;;;;;;;;;;;9.39;52.38;99612.50;5054240;28;19913;-79
2023/04/19 11:01:59;;;;;;;;;;;;;;;9.11;51.40;99607.66;5055821;28;19927;-79
2023/04/19 11:04:30;;;;;;;;;;;;;;;9.12;52.89;99608.47;5054616;28;19928;-79
2023/04/19 11:07:00;;;;;;;;;;;;;;;10.30;54.12;99597.19;5054582;28;20051;-79
2023/04/19 11:09:26;;;;;;;;;;;;;;;9.32;48.35;99601.09;5055151;28;20347;-79
2023/04/19 11:11:52;;;;;;;;;;;;;;;9.34;47.61;99599.84;5054491;28;20446;-79
2023/04/19 11:14:19;;;;;;;;;;;;;;;9.48;47.20;99603.97;5055540;28;19917;-79
2023/04/19 11:16:44;;;;;;;;;;;;;;;9.69;47.39;99586.72;5056540;28;20319;-79
2023/04/19 11:19:13;;;;;;;;;;;;;;;10.17;47.98;99574.19;5037538;28;19921;-79
2023/04/19 11:21:41;;;;;;;;;;;;;;;10.87;48.45;99580.44;5053863;28;19967;-79
2023/04/19 11:24:08;;;;;;;;;;;;;;;10.57;48.25;99580.50;5055628;28;19920;-79
2023/04/19 11:26:33;;;;;;;;;;;;;;;11.04;48.80;99575.19;5054547;28;19916;-79
2023/04/19 11:28:59;;;;;;;;;;;;;;;10.61;47.19;99578.22;5037661;28;20411;-79
2023/04/19 11:31:24;;;;;;;;;;;;;;;9.72;47.46;99563.06;5055500;28;20360;-79
2023/04/19 11:33:50;;;;;;;;;;;;;;;10.26;48.55;99558.66;5054599;28;19974;-79
2023/04/19 11:36:15;;;;;;;;;;;;;;;9.70;48.68;99559.00;5055096;28;19951;-78
2023/04/19 11:38:40;;;;;;;;;;;;;;;9.93;49.53;99542.28;5053966;28;19916;-79
2023/04/19 11:41:06;;;;;;;;;;;;;;;9.90;49.34;99546.22;5052937;28;19920;-79
2023/04/19 11:43:32;;;;;;;;;;;;;;;10.45;49.88;99550.34;5053198;28;19936;-79
2023/04/19 11:46:03;;;;;;;;;;;;;;;10.61;49.04;99543.50;5053658;28;19928;-79
2023/04/19 11:48:28;;;;;;;;;;;;;;;10.64;48.34;99542.25;5052919;28;19913;-79
2023/04/19 11:50:57;;;;;;;;;;;;;;;10.44;47.75;99539.91;5052915;28;20364;-79
2023/04/19 11:53:23;;;;;;;;;;;;;;;10.75;45.23;99530.72;5052886;28;19952;-79
2023/04/19 11:55:53;;;;;;;;;;;;;;;10.45;44.93;99529.00;5053222;28;19982;-79
2023/04/19 11:58:44;;;;;;;;;;;;;;;10.84;43.96;99532.81;5053804;28;19998;-80
2023/04/19 12:01:10;;;;;;;;;;;;;;;10.50;43.45;99534.47;5038387;28;19924;-80
2023/04/19 12:03:49;;;;;;;;;;;;;;;10.46;43.14;99529.81;5050044;28;19967;-80
2023/04/19 12:06:20;;;;;;;;;;;;;;;10.96;43.88;99522.97;5051861;28;20185;-80
2023/04/19 12:08:47;;;;;;;;;;;;;;;10.57;42.35;99525.53;5050670;28;20383;-80
2023/04/19 12:11:13;;;;;;;;;;;;;;;11.24;44.63;99522.19;5033570;28;19927;-80
2023/04/19 12:13:39;;;;;;;;;;;;;;;10.90;41.74;99534.56;5053817;28;20362;-80
2023/04/19 12:16:05;;;;;;;;;;;;;;;10.99;41.74;99532.34;5050817;28;19917;-80
2023/04/19 12:18:47;;;;;;;;;;;;;;;10.85;41.73;99522.97;5034763;28;20164;-80
2023/04/19 12:21:29;;;;;;;;;;;;;;;10.69;41.64;99515.66;5051601;28;19916;-80
2023/04/19 12:23:55;;;;;;;;;;;;;;;11.29;42.52;99504.41;5047909;28;19920;-80
2023/04/19 12:26:21;;;;;;;;;;;;;;;10.89;41.14;99513.44;5044672;28;19956;-80
2023/04/19 12:28:46;;;;;;;;;;;;;;;11.54;41.75;99511.28;5046811;28;20357;-81
2023/04/19 12:31:11;;;;;;;;;;;;;;;10.88;41.65;99503.78;5048597;28;19921;-80
2023/04/19 12:33:36;;;;;;;;;;;;;;;10.70;42.83;99510.09;5054629;28;20014;-80
2023/04/19 12:36:02;;;;;;;;;;;;;;;10.80;41.88;99509.50;5053247;28;19946;-80
2023/04/19 12:38:27;;;;;;;;;;;;;;;11.19;43.16;99498.03;5047029;28;19935;-80
2023/04/19 12:40:52;;;;;;;;;;;;;;;11.27;42.61;99487.78;5050206;28;20534;-81
2023/04/19 12:43:17;;;;;;;;;;;;;;;11.23;43.63;99488.50;5045761;28;19975;-80
2023/04/19 12:45:42;;;;;;;;;;;;;;;10.86;43.54;99498.69;5046469;28;19925;-80
2023/04/19 12:48:08;;;;;;;;;;;;;;;10.72;44.70;99496.50;5049777;28;19928;-80
2023/04/19 12:50:33;;;;;;;;;;;;;;;10.87;43.38;99488.81;5045434;28;19924;-80